Time,TemperatureF,DewpointF,PressureIn,WindDirection,WindDirectionDegrees,WindSpeedMPH,WindSpeedGustMPH,Humidity,HourlyPrecipIn,Conditions,Clouds,dailyrainin,SoftwareType,DateUTC
2013-07-26 00:10:00,42.4,42.1,30.24,East,90,0.0,-999.0,99,-99.99,,,0.00,Acu-Link.com,2013-07-26 06:10:00,
2013-07-26 00:25:00,42.6,42.3,30.24,East,90,2.2,-999.0,99,-99.99,,,0.00,Acu-Link.com,2013-07-26 06:25:00,
2013-07-26 00:45:00,42.6,42.3,30.23,East,90,2.2,-999.0,99,-99.99,,,0.00,Acu-Link.com,2013-07-26 06:45:00,
2013-07-26 01:02:00,43.2,42.9,30.22,East,90,1.7,-999.0,99,-99.99,,,0.00,Acu-Link.com,2013-07-26 07:02:00,
2013-07-26 01:40:00,43.2,42.9,30.22,East,90,0.0,-999.0,99,-99.99,,,0.00,Acu-Link.com,2013-07-26 07:40:00,
2013-07-26 01:55:00,42.6,42.1,30.21,East,90,0.0,-999.0,98,-99.99,,,0.00,Acu-Link.com,2013-07-26 07:55:00,
2013-07-26 02:10:00,42.3,41.8,30.21,East,90,0.0,-999.0,98,-99.99,,,0.00,Acu-Link.com,2013-07-26 08:10:00,
2013-07-26 02:25:00,41.7,41.2,30.21,East,90,1.7,-999.0,98,-99.99,,,0.00,Acu-Link.com,2013-07-26 08:25:00,
2013-07-26 02:56:00,41.2,40.7,30.21,East,90,1.7,-999.0,98,-99.99,,,0.00,Acu-Link.com,2013-07-26 08:56:00,
2013-07-26 03:26:00,40.5,40.2,30.20,East,90,1.7,-999.0,99,-99.99,,,0.00,Acu-Link.com,2013-07-26 09:26:00,
2013-07-26 03:41:00,40.8,40.5,30.20,East,90,3.2,-999.0,99,-99.99,,,0.00,Acu-Link.com,2013-07-26 09:41:00,
2013-07-26 03:56:00,40.1,39.8,30.21,East,90,1.1,-999.0,99,-99.99,,,0.00,Acu-Link.com,2013-07-26 09:56:00,
2013-07-26 04:12:00,40.1,39.8,30.20,East,90,1.7,-999.0,99,-99.99,,,0.00,Acu-Link.com,2013-07-26 10:12:00,
2013-07-26 04:27:00,40.8,40.5,30.21,East,90,0.0,-999.0,99,-99.99,,,0.00,Acu-Link.com,2013-07-26 10:27:00,
2013-07-26 04:42:00,41.0,40.7,30.21,East,90,1.7,-999.0,99,-99.99,,,0.00,Acu-Link.com,2013-07-26 10:42:00,
2013-07-26 04:57:00,40.8,40.5,30.21,East,90,2.2,-999.0,99,-99.99,,,0.00,Acu-Link.com,2013-07-26 10:57:00,
2013-07-26 05:12:00,40.8,40.3,30.21,East,90,1.7,-999.0,98,-99.99,,,0.00,Acu-Link.com,2013-07-26 11:12:00,
2013-07-26 05:27:00,40.3,40.0,30.21,East,90,1.1,-999.0,99,-99.99,,,0.00,Acu-Link.com,2013-07-26 11:27:00,
2013-07-26 05:42:00,40.8,40.5,30.21,East,90,2.2,-999.0,99,-99.99,,,0.00,Acu-Link.com,2013-07-26 11:42:00,
2013-07-26 05:57:00,40.6,40.3,30.21,East,90,0.0,-999.0,99,-99.99,,,0.00,Acu-Link.com,2013-07-26 11:57:00,
2013-07-26 06:13:00,40.3,40.0,30.22,East,90,0.0,-999.0,99,-99.99,,,0.00,Acu-Link.com,2013-07-26 12:13:00,
2013-07-26 06:28:00,39.9,39.6,30.22,East,90,0.0,-999.0,99,-99.99,,,0.00,Acu-Link.com,2013-07-26 12:28:00,
2013-07-26 06:43:00,41.0,40.7,30.23,East,90,1.1,-999.0,99,-99.99,,,0.00,Acu-Link.com,2013-07-26 12:43:00,
2013-07-26 06:59:00,41.4,40.9,30.23,East,90,1.7,-999.0,98,-99.99,,,0.00,Acu-Link.com,2013-07-26 12:59:00,
2013-07-26 07:14:00,41.5,41.2,30.23,East,90,2.2,-999.0,99,-99.99,,,0.00,Acu-Link.com,2013-07-26 13:14:00,
2013-07-26 07:29:00,42.6,42.3,30.23,East,90,0.0,-999.0,99,-99.99,,,0.00,Acu-Link.com,2013-07-26 13:29:00,
2013-07-26 07:44:00,43.7,43.4,30.24,East,90,0.0,-999.0,99,-99.99,,,0.00,Acu-Link.com,2013-07-26 13:44:00,
2013-07-26 07:59:00,46.0,45.7,30.24,East,90,0.0,-999.0,99,-99.99,,,0.00,Acu-Link.com,2013-07-26 13:59:00,
2013-07-26 08:14:00,46.8,46.5,30.25,East,90,0.0,-999.0,99,-99.99,,,0.00,Acu-Link.com,2013-07-26 14:14:00,
2013-07-26 08:29:00,50.4,46.7,30.25,East,90,1.7,-999.0,87,-99.99,,,0.00,Acu-Link.com,2013-07-26 14:29:00,
2013-07-26 08:44:00,54.7,45.5,30.26,East,90,1.1,-999.0,71,-99.99,,,0.00,Acu-Link.com,2013-07-26 14:44:00,
2013-07-26 08:59:00,59.0,46.8,30.25,East,90,1.1,-999.0,64,-99.99,,,0.00,Acu-Link.com,2013-07-26 14:59:00,
2013-07-26 09:15:00,59.2,40.6,30.26,East,90,1.1,-999.0,50,-99.99,,,0.00,Acu-Link.com,2013-07-26 15:15:00,
2013-07-26 09:30:00,59.5,40.8,30.26,East,90,2.7,-999.0,50,-99.99,,,0.00,Acu-Link.com,2013-07-26 15:30:00,
2013-07-26 09:45:00,61.2,43.9,30.26,East,90,0.0,-999.0,53,-99.99,,,0.00,Acu-Link.com,2013-07-26 15:45:00,
2013-07-26 10:00:00,63.5,45.0,30.26,East,90,1.7,-999.0,51,-99.99,,,0.00,Acu-Link.com,2013-07-26 16:00:00,
2013-07-26 10:15:00,62.8,43.9,30.25,East,90,1.7,-999.0,50,-99.99,,,0.00,Acu-Link.com,2013-07-26 16:15:00,
2013-07-26 10:30:00,63.3,42.2,30.26,East,90,1.7,-999.0,46,-99.99,,,0.00,Acu-Link.com,2013-07-26 16:30:00,
2013-07-26 10:46:00,65.1,41.4,30.26,East,90,2.7,-999.0,42,-99.99,,,0.00,Acu-Link.com,2013-07-26 16:46:00,
2013-07-26 11:01:00,67.3,44.0,30.26,East,90,2.7,-999.0,43,-99.99,,,0.00,Acu-Link.com,2013-07-26 17:01:00,
2013-07-26 11:16:00,64.4,43.2,30.27,East,90,1.7,-999.0,46,-99.99,,,0.00,Acu-Link.com,2013-07-26 17:16:00,
2013-07-26 11:31:00,65.8,43.3,30.26,ESE,112,1.7,-999.0,44,-99.99,,,0.00,Acu-Link.com,2013-07-26 17:31:00,
2013-07-26 12:01:00,64.0,41.6,30.26,ESE,112,2.7,-999.0,44,-99.99,,,0.00,Acu-Link.com,2013-07-26 18:01:00,
2013-07-26 12:17:00,64.9,40.0,30.25,ESE,112,0.0,-999.0,40,-99.99,,,0.00,Acu-Link.com,2013-07-26 18:17:00,
2013-07-26 12:32:00,67.5,42.3,30.25,ESE,112,1.1,-999.0,40,-99.99,,,0.00,Acu-Link.com,2013-07-26 18:32:00,
2013-07-26 12:47:00,69.3,43.9,30.25,ESE,112,3.7,-999.0,40,-99.99,,,0.00,Acu-Link.com,2013-07-26 18:47:00,
2013-07-26 13:02:00,64.2,40.6,30.25,WNW,292,2.2,-999.0,42,-99.99,,,0.00,Acu-Link.com,2013-07-26 19:02:00,
2013-07-26 13:32:00,65.8,40.8,30.24,ESE,112,1.7,-999.0,40,-99.99,,,0.00,Acu-Link.com,2013-07-26 19:32:00,
2013-07-26 13:47:00,68.9,39.4,30.23,ESE,112,4.7,-999.0,34,-99.99,,,0.00,Acu-Link.com,2013-07-26 19:47:00,
2013-07-26 14:02:00,68.2,40.9,30.22,East,90,2.2,-999.0,37,-99.99,,,0.00,Acu-Link.com,2013-07-26 20:02:00,
2013-07-26 14:17:00,67.6,39.0,30.23,ESE,112,2.2,-999.0,35,-99.99,,,0.00,Acu-Link.com,2013-07-26 20:17:00,
2013-07-26 14:33:00,70.3,41.3,30.23,ESE,112,2.7,-999.0,35,-99.99,,,0.00,Acu-Link.com,2013-07-26 20:33:00,
2013-07-26 14:48:00,68.5,39.8,30.23,ESE,112,4.7,-999.0,35,-99.99,,,0.00,Acu-Link.com,2013-07-26 20:48:00,
2013-07-26 15:03:00,65.3,39.0,30.23,ESE,112,2.2,-999.0,38,-99.99,,,0.00,Acu-Link.com,2013-07-26 21:03:00,
2013-07-26 15:18:00,64.8,35.8,30.23,ESE,112,2.7,-999.0,34,-99.99,,,0.00,Acu-Link.com,2013-07-26 21:18:00,
2013-07-26 15:33:00,69.1,38.0,30.22,ESE,112,3.7,-999.0,32,-99.99,,,0.00,Acu-Link.com,2013-07-26 21:33:00,
2013-07-26 15:48:00,68.9,37.8,30.22,ESE,112,3.7,-999.0,32,-99.99,,,0.00,Acu-Link.com,2013-07-26 21:48:00,
2013-07-26 16:03:00,69.3,38.2,30.21,ESE,112,1.7,-999.0,32,-99.99,,,0.00,Acu-Link.com,2013-07-26 22:03:00,
2013-07-26 16:19:00,68.7,37.6,30.21,ESE,112,2.2,-999.0,32,-99.99,,,0.00,Acu-Link.com,2013-07-26 22:19:00,
2013-07-26 16:34:00,68.4,37.4,30.21,ESE,112,2.7,-999.0,32,-99.99,,,0.00,Acu-Link.com,2013-07-26 22:34:00,
2013-07-26 16:49:00,67.6,37.5,30.20,ESE,112,2.2,-999.0,33,-99.99,,,0.00,Acu-Link.com,2013-07-26 22:49:00,
2013-07-26 17:04:00,66.7,38.2,30.21,ESE,112,1.7,-999.0,35,-99.99,,,0.00,Acu-Link.com,2013-07-26 23:04:00,
2013-07-26 17:19:00,66.6,39.5,30.21,ESE,112,2.7,-999.0,37,-99.99,,,0.00,Acu-Link.com,2013-07-26 23:19:00,
2013-07-26 17:34:00,67.1,38.5,30.20,ESE,112,4.2,-999.0,35,-99.99,,,0.00,Acu-Link.com,2013-07-26 23:34:00,
2013-07-26 17:49:00,66.6,39.5,30.19,ESE,112,3.7,-999.0,37,-99.99,,,0.00,Acu-Link.com,2013-07-26 23:49:00,
2013-07-26 18:04:00,68.2,39.5,30.18,ESE,112,0.0,-999.0,35,-99.99,,,0.00,Acu-Link.com,2013-07-27 00:04:00,
2013-07-26 18:19:00,67.3,39.4,30.18,ESE,112,1.7,-999.0,36,-99.99,,,0.00,Acu-Link.com,2013-07-27 00:19:00,
2013-07-26 18:35:00,66.0,39.0,30.18,ESE,112,1.7,-999.0,37,-99.99,,,0.00,Acu-Link.com,2013-07-27 00:35:00,
2013-07-26 18:50:00,65.1,39.5,30.19,ESE,112,1.7,-999.0,39,-99.99,,,0.00,Acu-Link.com,2013-07-27 00:50:00,
2013-07-26 19:05:00,63.7,38.3,30.18,ESE,112,2.2,-999.0,39,-99.99,,,0.00,Acu-Link.com,2013-07-27 01:05:00,
2013-07-26 19:20:00,63.0,38.9,30.18,ESE,112,0.0,-999.0,41,-99.99,,,0.00,Acu-Link.com,2013-07-27 01:20:00,
2013-07-26 19:35:00,61.3,38.0,30.18,ESE,112,0.0,-999.0,42,-99.99,,,0.00,Acu-Link.com,2013-07-27 01:35:00,
2013-07-26 19:50:00,60.4,37.8,30.18,ESE,112,0.0,-999.0,43,-99.99,,,0.00,Acu-Link.com,2013-07-27 01:50:00,
2013-07-26 20:05:00,58.6,38.4,30.18,ESE,112,0.0,-999.0,47,-99.99,,,0.00,Acu-Link.com,2013-07-27 02:05:00,
2013-07-26 20:20:00,57.4,39.4,30.18,ESE,112,0.0,-999.0,51,-99.99,,,0.00,Acu-Link.com,2013-07-27 02:20:00,
2013-07-26 20:35:00,55.9,38.0,30.17,ESE,112,1.1,-999.0,51,-99.99,,,0.00,Acu-Link.com,2013-07-27 02:35:00,
2013-07-26 20:51:00,54.7,38.9,30.17,ESE,112,0.0,-999.0,55,-99.99,,,0.00,Acu-Link.com,2013-07-27 02:51:00,
2013-07-26 21:06:00,53.6,35.4,30.17,ESE,112,1.7,-999.0,50,-99.99,,,0.00,Acu-Link.com,2013-07-27 03:06:00,
2013-07-26 21:21:00,52.7,36.1,30.18,ESE,112,2.7,-999.0,53,-99.99,,,0.00,Acu-Link.com,2013-07-27 03:21:00,
2013-07-26 21:51:00,53.6,35.9,30.18,ESE,112,0.0,-999.0,51,-99.99,,,0.00,Acu-Link.com,2013-07-27 03:51:00,
2013-07-26 22:21:00,52.5,35.4,30.17,ESE,112,1.1,-999.0,52,-99.99,,,0.00,Acu-Link.com,2013-07-27 04:21:00,
2013-07-26 22:36:00,51.4,35.8,30.18,ESE,112,0.0,-999.0,55,-99.99,,,0.00,Acu-Link.com,2013-07-27 04:36:00,
2013-07-26 22:51:00,50.4,34.8,30.18,ESE,112,0.0,-999.0,55,-99.99,,,0.00,Acu-Link.com,2013-07-27 04:51:00,
2013-07-26 23:07:00,49.3,34.7,30.18,ESE,112,0.0,-999.0,57,-99.99,,,0.00,Acu-Link.com,2013-07-27 05:07:00,
2013-07-26 23:22:00,48.6,34.5,30.18,ESE,112,0.0,-999.0,58,-99.99,,,0.00,Acu-Link.com,2013-07-27 05:22:00,
2013-07-26 23:37:00,48.4,34.7,30.18,ESE,112,1.7,-999.0,59,-99.99,,,0.00,Acu-Link.com,2013-07-27 05:37:00,
2013-07-26 23:52:00,48.2,34.1,30.17,ESE,112,1.7,-999.0,58,-99.99,,,0.00,Acu-Link.com,2013-07-27 05:52:00,